createdAt,value
2018-12-24T00:00:29.206Z,1.03
2018-12-24T00:02:58.069Z,3.87
2018-12-24T00:05:26.959Z,0.70
2018-12-24T00:07:56.136Z,1.27
2018-12-24T00:10:25.210Z,0.70
2018-12-24T00:12:54.190Z,3.37
2018-12-24T00:15:23.201Z,1.00
2018-12-24T00:17:52.388Z,0.70
2018-12-24T00:20:21.312Z,0.67
2018-12-24T00:22:50.469Z,0.60
2018-12-24T00:25:19.306Z,0.93
2018-12-24T00:27:48.196Z,3.60
2018-12-24T00:30:17.346Z,1.03
2018-12-24T00:32:46.245Z,0.70
2018-12-24T00:35:15.638Z,0.57
2018-12-24T00:37:44.842Z,0.60
2018-12-24T00:40:13.744Z,4.60
2018-12-24T00:42:42.990Z,0.60
2018-12-24T00:45:11.880Z,0.80
2018-12-24T00:47:41.039Z,1.10
2018-12-24T00:50:10.017Z,0.80
2018-12-24T00:52:38.840Z,1.10
2018-12-24T00:55:07.693Z,0.80
2018-12-24T00:57:55.726Z,0.83
2018-12-24T01:00:24.625Z,0.70
2018-12-24T01:02:53.513Z,0.70
2018-12-24T01:05:22.391Z,0.70
2018-12-24T01:07:51.213Z,0.80
2018-12-24T01:10:20.040Z,0.70
2018-12-24T01:12:49.168Z,0.60
2018-12-24T01:15:18.017Z,0.77
2018-12-24T01:17:46.845Z,0.60
2018-12-24T01:20:15.681Z,0.63
2018-12-24T01:22:44.601Z,0.67
2018-12-24T01:25:13.452Z,0.73
2018-12-24T01:27:42.290Z,0.57
2018-12-24T03:16:20.757Z,0.60
2018-12-24T03:18:50.390Z,1.10
2018-12-24T03:21:19.226Z,0.50
2018-12-24T03:23:48.510Z,1.20
2018-12-24T03:26:17.410Z,0.50
2018-12-24T03:28:46.563Z,0.50
2018-12-24T03:31:15.719Z,0.50
2018-12-24T03:33:44.737Z,0.43
2018-12-24T03:36:13.659Z,0.60
2018-12-24T03:38:42.594Z,0.60
2018-12-24T03:41:11.557Z,0.70
2018-12-24T03:43:40.458Z,0.70
2018-12-24T03:46:09.374Z,2.70
2018-12-24T03:48:38.697Z,0.60
2018-12-24T03:51:07.942Z,0.50
2018-12-24T03:53:36.814Z,0.60
2018-12-24T03:56:05.719Z,0.62
2018-12-24T03:58:34.646Z,0.60
2018-12-24T04:01:03.497Z,0.60
2018-12-24T04:03:32.703Z,0.50
2018-12-24T04:06:01.706Z,0.50
2018-12-24T04:08:30.622Z,1.20
2018-12-24T04:10:59.546Z,1.20
2018-12-24T04:13:28.402Z,0.50
2018-12-24T04:15:57.503Z,0.50
2018-12-24T04:18:26.345Z,0.80
2018-12-24T04:20:55.265Z,0.60
2018-12-24T04:23:24.120Z,1.90
2018-12-24T04:25:53.107Z,0.50
2018-12-24T04:28:22.039Z,1.05
2018-12-24T04:30:50.901Z,0.50
2018-12-24T04:33:19.845Z,0.60
2018-12-24T04:35:48.821Z,2.00
2018-12-24T04:38:18.062Z,0.60
2018-12-24T04:40:46.901Z,1.70
2018-12-24T04:43:15.773Z,1.10
2018-12-24T04:45:44.698Z,0.50
2018-12-24T04:48:13.815Z,2.10
2018-12-24T04:50:42.900Z,11.40
2018-12-24T04:53:11.757Z,0.90
2018-12-24T04:55:40.606Z,3.60
2018-12-24T04:58:09.444Z,0.60
2018-12-24T05:00:38.294Z,0.70
2018-12-24T05:03:07.137Z,2.50
2018-12-24T05:05:36.001Z,2.67
2018-12-24T05:08:04.913Z,0.60
2018-12-24T05:10:34.130Z,1.20
2018-12-24T05:13:02.998Z,2.47
2018-12-24T05:15:32.113Z,0.60
2018-12-24T05:18:00.987Z,1.00
2018-12-24T05:20:29.825Z,0.70
2018-12-24T05:22:58.669Z,0.60
2018-12-24T05:25:27.535Z,0.70
2018-12-24T05:27:56.449Z,0.70
2018-12-24T05:30:25.297Z,2.15
2018-12-24T05:32:54.151Z,0.60
2018-12-24T05:35:23.337Z,0.60
2018-12-24T05:37:52.260Z,0.60
2018-12-24T05:40:21.524Z,0.60
2018-12-24T05:42:50.708Z,0.60
2018-12-24T05:45:19.573Z,0.70
2018-12-24T05:47:48.486Z,0.75
2018-12-24T05:50:17.590Z,0.60
2018-12-24T05:52:46.460Z,0.63
2018-12-24T05:55:15.475Z,0.60
2018-12-24T05:57:44.468Z,0.60
2018-12-24T06:00:13.390Z,0.70
2018-12-24T06:02:42.289Z,2.60
2018-12-24T06:05:11.295Z,2.70
2018-12-24T06:07:40.136Z,0.60
2018-12-24T06:10:08.997Z,0.57
2018-12-24T06:12:38.214Z,0.60
2018-12-24T06:15:07.222Z,0.60
2018-12-24T06:17:36.411Z,0.60
2018-12-24T06:20:05.422Z,4.35
2018-12-24T06:22:34.328Z,0.60
2018-12-24T06:25:03.259Z,0.60
2018-12-24T06:27:32.265Z,0.50
2018-12-24T06:30:01.185Z,0.60
2018-12-24T06:32:30.102Z,0.50
2018-12-24T06:34:59.382Z,0.60
2018-12-24T06:37:28.233Z,0.50
2018-12-24T06:39:57.073Z,0.60
2018-12-24T06:42:25.997Z,0.60
2018-12-24T06:44:54.837Z,0.57
2018-12-24T06:47:23.785Z,0.60
2018-12-24T06:49:52.630Z,0.60
2018-12-24T06:52:21.473Z,0.60
2018-12-24T06:54:50.429Z,0.70
2018-12-24T06:57:19.377Z,0.60
2018-12-24T06:59:48.313Z,0.65
2018-12-24T07:02:17.230Z,0.70
2018-12-24T07:04:46.145Z,0.80
2018-12-24T07:07:15.065Z,0.70
2018-12-24T07:09:43.984Z,0.80
2018-12-24T07:12:12.909Z,0.80
2018-12-24T07:14:41.830Z,0.70
2018-12-24T07:17:22.327Z,0.80
2018-12-24T07:19:51.167Z,0.83
2018-12-24T07:22:20.010Z,0.70
2018-12-24T07:24:48.953Z,0.90
2018-12-24T07:27:17.894Z,1.40
2018-12-24T07:29:46.743Z,1.30
2018-12-24T07:32:15.589Z,1.52
2018-12-24T07:34:44.444Z,1.80
2018-12-24T07:37:13.485Z,1.57
2018-12-24T07:39:42.820Z,1.60
2018-12-24T07:42:11.635Z,1.70
2018-12-24T07:44:40.904Z,1.30
2018-12-24T07:47:10.125Z,1.60
2018-12-24T07:49:38.971Z,2.50
2018-12-24T07:52:07.805Z,1.60
2018-12-24T07:54:36.658Z,1.20
2018-12-24T07:57:05.576Z,1.10
2018-12-24T07:59:34.507Z,2.30
2018-12-24T08:02:03.420Z,1.00
2018-12-24T08:04:32.349Z,1.80
2018-12-24T08:07:01.263Z,1.00
2018-12-24T08:09:30.134Z,0.80
2018-12-24T08:11:59.281Z,1.10
2018-12-24T08:14:33.071Z,1.00
2018-12-24T08:16:59.301Z,1.05
2018-12-24T08:19:28.172Z,2.00
2018-12-24T08:21:57.038Z,0.80
2018-12-24T08:24:25.973Z,0.90
2018-12-24T08:26:54.818Z,1.10
2018-12-24T08:29:23.682Z,1.50
2018-12-24T08:31:52.537Z,1.60
2018-12-24T08:34:21.516Z,1.10
2018-12-24T08:36:50.414Z,0.80
2018-12-24T08:39:19.385Z,1.90
2018-12-24T08:41:48.757Z,3.17
2018-12-24T08:44:17.697Z,3.10
2018-12-24T08:46:46.554Z,3.72
2018-12-24T08:49:15.418Z,2.33
2018-12-24T08:51:44.264Z,1.87
2018-12-24T08:54:13.133Z,2.20
2018-12-24T08:56:42.061Z,1.40
2018-12-24T08:59:11.286Z,1.50
2018-12-24T09:01:40.293Z,1.70
2018-12-24T09:04:09.546Z,1.40
2018-12-24T09:06:38.550Z,1.30
2018-12-24T09:09:08.048Z,1.50
2018-12-24T09:11:37.057Z,1.37
2018-12-24T09:14:06.063Z,1.32
2018-12-24T09:16:35.636Z,1.50
2018-12-24T09:19:04.556Z,2.60
2018-12-24T09:21:33.825Z,1.20
2018-12-24T09:24:06.186Z,1.00
2018-12-24T09:26:35.020Z,10.43
2018-12-24T09:29:04.009Z,1.30
2018-12-24T09:31:33.013Z,1.00
2018-12-24T09:34:01.867Z,1.60
2018-12-24T09:36:30.866Z,1.33
2018-12-24T09:38:59.795Z,1.50
2018-12-24T09:41:28.714Z,2.08
2018-12-24T09:43:57.676Z,2.17
2018-12-24T09:46:26.814Z,3.17
2018-12-24T09:48:55.656Z,3.60
2018-12-24T09:51:24.591Z,2.30
2018-12-24T09:53:53.509Z,1.40
2018-12-24T09:56:22.437Z,1.20
2018-12-24T09:58:51.345Z,1.40
2018-12-24T10:01:20.586Z,0.90
2018-12-24T10:03:53.310Z,1.00
2018-12-24T10:06:30.188Z,0.90
2018-12-24T10:09:00.709Z,1.10
2018-12-24T10:11:29.721Z,0.60
2018-12-24T10:13:58.566Z,0.90
2018-12-24T10:16:27.835Z,1.20
2018-12-24T10:18:56.755Z,0.90
2018-12-24T10:21:25.682Z,0.90
2018-12-24T10:23:56.106Z,0.90
2018-12-24T10:26:25.153Z,1.20
2018-12-24T10:28:53.983Z,0.90
2018-12-24T10:31:23.218Z,0.98
2018-12-24T10:33:52.069Z,0.90
2018-12-24T10:36:20.942Z,0.90
2018-12-24T10:38:49.853Z,1.10
2018-12-24T10:41:21.813Z,0.88
2018-12-24T10:43:50.685Z,1.00
2018-12-24T10:46:19.874Z,0.90
2018-12-24T10:48:48.794Z,1.10
2018-12-24T10:51:17.997Z,0.80
2018-12-24T10:53:46.988Z,1.60
2018-12-24T10:56:16.281Z,0.90
2018-12-24T10:58:45.119Z,0.90
2018-12-24T11:01:14.032Z,1.30
2018-12-24T11:03:42.960Z,0.90
2018-12-24T11:06:11.887Z,0.85
2018-12-24T11:08:40.735Z,1.00
2018-12-24T11:11:09.921Z,1.05
2018-12-24T11:13:39.719Z,1.10
2018-12-24T11:16:08.840Z,0.97
2018-12-24T11:18:38.142Z,1.17
2018-12-24T11:21:07.775Z,2.03
2018-12-24T11:23:36.767Z,1.15
2018-12-24T11:26:06.079Z,0.90
2018-12-24T11:28:34.913Z,1.02
2018-12-24T11:31:03.835Z,1.00
2018-12-24T11:33:32.777Z,0.90
2018-12-24T11:36:01.706Z,0.80
2018-12-24T11:38:30.688Z,0.90
2018-12-24T11:40:59.617Z,0.80
2018-12-24T11:43:28.557Z,0.90
2018-12-24T11:45:57.710Z,1.00
2018-12-24T11:48:26.906Z,3.20
2018-12-24T11:50:55.765Z,1.45
2018-12-24T11:53:24.698Z,2.02
2018-12-24T11:55:53.977Z,6.40
2018-12-24T11:58:23.014Z,3.95
2018-12-24T12:00:52.303Z,2.60
2018-12-24T12:03:21.306Z,2.95
2018-12-24T12:05:50.294Z,2.08
2018-12-24T12:08:19.249Z,1.10
2018-12-24T12:10:48.254Z,0.80
2018-12-24T12:13:17.484Z,0.85
2018-12-24T12:15:46.629Z,1.20
2018-12-24T12:18:15.501Z,1.20
2018-12-24T12:20:52.359Z,0.90
2018-12-24T12:23:15.065Z,0.93
2018-12-24T12:25:43.982Z,4.53
2018-12-24T12:28:12.841Z,1.45
2018-12-24T12:30:41.845Z,0.80
2018-12-24T12:33:10.765Z,1.00
2018-12-24T12:35:39.621Z,0.70
2018-12-24T12:38:08.587Z,0.80
2018-12-24T12:40:37.438Z,1.82
2018-12-24T12:43:06.459Z,0.72
2018-12-24T12:45:35.418Z,0.80
2018-12-24T12:48:04.734Z,3.20
2018-12-24T12:50:33.666Z,0.90
2018-12-24T12:53:02.829Z,0.90
2018-12-24T12:55:32.010Z,0.80
2018-12-24T12:58:00.943Z,0.80
2018-12-24T13:00:30.115Z,0.70
2018-12-24T13:02:59.048Z,0.80
2018-12-24T13:05:27.922Z,0.80
2018-12-24T13:07:57.126Z,1.00
2018-12-24T13:10:26.061Z,1.80
2018-12-24T13:12:55.386Z,0.80
2018-12-24T13:15:24.322Z,0.80
2018-12-24T13:17:53.266Z,0.75
2018-12-24T13:20:25.198Z,1.10
2018-12-24T13:22:52.950Z,0.70
2018-12-24T13:25:21.881Z,0.70
2018-12-24T13:27:51.062Z,0.62
2018-12-24T13:30:19.996Z,0.80
2018-12-24T13:32:49.633Z,0.70
2018-12-24T13:35:18.567Z,0.80
2018-12-24T13:37:47.486Z,0.60
2018-12-24T13:40:16.434Z,0.70
2018-12-24T13:42:45.309Z,0.90
2018-12-24T13:45:14.605Z,0.60
2018-12-24T13:47:43.597Z,2.27
2018-12-24T13:50:12.601Z,0.60
2018-12-24T13:52:41.761Z,0.70
2018-12-24T13:55:10.684Z,0.80
2018-12-24T13:57:40.018Z,1.00
2018-12-24T14:00:09.321Z,0.80
2018-12-24T14:02:38.175Z,0.90
2018-12-24T14:05:07.182Z,0.70
2018-12-24T14:07:36.407Z,0.80
2018-12-24T14:10:05.882Z,1.60
2018-12-24T14:12:34.813Z,0.80
2018-12-24T14:15:03.750Z,1.60
2018-12-24T14:17:33.199Z,5.00
2018-12-24T14:20:02.121Z,5.83
2018-12-24T14:22:31.137Z,11.88
2018-12-24T14:25:00.592Z,21.07
2018-12-24T14:27:29.525Z,30.87
2018-12-24T14:29:58.393Z,9.08
2018-12-24T14:32:27.588Z,4.30
2018-12-24T14:34:56.448Z,3.27
2018-12-24T14:37:25.370Z,2.62
2018-12-24T14:39:54.237Z,2.90
2018-12-24T14:42:23.081Z,1.70
2018-12-24T14:44:52.614Z,1.20
2018-12-24T14:47:21.553Z,1.30
2018-12-24T14:49:50.472Z,1.80
2018-12-24T14:52:19.402Z,0.90
2018-12-24T14:54:48.271Z,0.80
2018-12-24T14:57:17.456Z,0.93
2018-12-24T14:59:46.318Z,0.90
2018-12-24T15:02:15.297Z,1.20
2018-12-24T15:04:44.217Z,1.62
2018-12-24T15:07:13.070Z,1.80
2018-12-24T15:09:42.265Z,2.50
2018-12-24T15:12:11.537Z,3.47
2018-12-24T15:14:40.458Z,4.70
2018-12-24T15:17:09.345Z,1.50
2018-12-24T15:19:38.313Z,2.10
2018-12-24T15:22:07.161Z,2.20
2018-12-24T15:24:36.026Z,1.90
2018-12-24T15:27:05.054Z,1.65
2018-12-24T15:29:33.987Z,2.67
2018-12-24T15:32:02.918Z,2.62
2018-12-24T15:34:32.755Z,1.20
2018-12-24T15:37:01.711Z,1.00
2018-12-24T15:39:30.634Z,1.77
2018-12-24T15:41:59.634Z,1.50
2018-12-24T15:44:28.482Z,2.15
2018-12-24T15:46:57.414Z,2.20
2018-12-24T15:49:26.854Z,1.30
2018-12-24T15:51:55.917Z,1.40
2018-12-24T15:54:24.817Z,2.30
2018-12-24T15:56:54.210Z,1.87
2018-12-24T15:59:23.056Z,1.60
2018-12-24T16:01:51.914Z,2.60
2018-12-24T16:04:20.837Z,3.37
2018-12-24T16:06:49.690Z,3.08
2018-12-24T16:09:18.683Z,2.20
2018-12-24T16:11:47.634Z,2.87
2018-12-24T16:14:16.486Z,3.17
2018-12-24T16:16:51.045Z,2.50
2018-12-24T16:19:16.145Z,5.10
2018-12-24T16:21:45.153Z,4.40
2018-12-24T16:24:14.461Z,4.10
2018-12-24T16:26:43.666Z,4.08
2018-12-24T16:29:12.831Z,5.40
2018-12-24T16:31:42.058Z,3.70
2018-12-24T16:34:10.993Z,4.17
2018-12-24T16:36:39.945Z,4.80
2018-12-24T16:39:08.867Z,6.12
2018-12-24T16:41:38.226Z,8.80
2018-12-24T16:44:07.470Z,25.97
2018-12-24T16:46:36.481Z,22.62
2018-12-24T16:49:05.400Z,18.92
2018-12-24T16:51:34.255Z,6.90
2018-12-24T16:54:03.237Z,4.80
2018-12-24T16:56:32.200Z,3.52
2018-12-24T16:59:01.699Z,3.10
2018-12-24T17:01:30.707Z,3.30
2018-12-24T17:03:59.565Z,4.60
2018-12-24T17:06:28.677Z,14.47
2018-12-24T17:08:57.625Z,8.70
2018-12-24T17:11:26.864Z,4.40
2018-12-24T17:13:55.886Z,8.90
2018-12-24T17:16:25.154Z,8.98
2018-12-24T17:18:54.169Z,4.10
2018-12-24T17:21:23.081Z,1.70
2018-12-24T17:23:52.367Z,1.70
2018-12-24T17:26:21.273Z,2.17
2018-12-24T17:28:50.457Z,2.90
2018-12-24T17:31:19.297Z,2.50
2018-12-24T17:33:48.240Z,2.70
2018-12-24T17:36:17.236Z,2.90
2018-12-24T17:38:46.167Z,3.25
2018-12-24T17:41:15.462Z,5.55
2018-12-24T17:43:44.730Z,6.50
2018-12-24T17:46:14.041Z,16.45
2018-12-24T17:48:42.918Z,64.67
2018-12-24T17:51:11.845Z,62.43
2018-12-24T17:53:40.693Z,11.18
2018-12-24T17:56:09.685Z,5.12
2018-12-24T17:58:38.558Z,4.13
2018-12-24T18:01:07.834Z,3.58
2018-12-24T18:03:36.681Z,4.67
2018-12-24T18:06:05.546Z,4.80
2018-12-24T18:08:34.383Z,4.70
2018-12-24T18:11:03.387Z,4.62
2018-12-24T18:13:32.302Z,4.30
2018-12-24T18:16:01.426Z,4.10
2018-12-24T18:18:30.666Z,4.33
2018-12-24T18:20:59.627Z,4.62
2018-12-24T18:23:28.557Z,3.50
2018-12-24T18:25:57.413Z,3.95
2018-12-24T18:28:26.643Z,4.20
2018-12-24T18:30:57.473Z,4.40
2018-12-24T18:33:26.553Z,8.45
2018-12-24T18:35:55.454Z,6.37
2018-12-24T18:38:24.761Z,4.90
2018-12-24T18:40:53.627Z,5.78
2018-12-24T18:43:22.847Z,6.87
2018-12-24T18:45:51.722Z,6.80
2018-12-24T18:48:20.569Z,5.60
2018-12-24T18:50:49.574Z,6.33
2018-12-24T18:53:18.417Z,7.08
2018-12-24T18:55:47.419Z,7.37
2018-12-24T18:58:16.725Z,8.10
2018-12-24T19:00:45.909Z,6.30
2018-12-24T21:43:43.985Z,9.07
2018-12-24T21:46:13.198Z,23.57
2018-12-24T21:48:42.145Z,25.67
2018-12-24T21:51:10.997Z,24.82
2018-12-24T21:53:40.388Z,26.27
2018-12-24T21:56:09.751Z,26.82
2018-12-24T21:58:38.616Z,22.95
2018-12-24T22:01:07.570Z,22.20
2018-12-24T22:03:36.894Z,25.00
2018-12-24T22:06:05.841Z,20.27
2018-12-24T22:08:34.795Z,25.17
2018-12-24T22:11:04.343Z,19.60
2018-12-24T22:13:33.344Z,20.53
2018-12-24T22:16:02.650Z,22.32
2018-12-24T22:18:32.299Z,19.97
2018-12-24T22:21:01.557Z,23.10
2018-12-24T22:23:30.842Z,19.57
2018-12-24T22:25:59.842Z,13.40
2018-12-24T22:28:28.785Z,18.10
2018-12-24T22:30:57.681Z,20.68
2018-12-24T22:33:27.076Z,21.42
2018-12-24T22:35:56.526Z,21.43
2018-12-24T22:38:26.033Z,21.12
2018-12-24T22:40:55.049Z,23.02
2018-12-24T22:43:23.977Z,21.50
2018-12-24T22:45:53.006Z,20.62
2018-12-24T22:48:21.930Z,22.55
2018-12-24T22:50:50.796Z,22.63
2018-12-24T22:53:19.675Z,20.35
2018-12-24T22:55:48.636Z,23.25
2018-12-24T22:58:17.645Z,19.92
2018-12-24T23:00:49.010Z,18.67
2018-12-24T23:03:18.027Z,22.45
2018-12-24T23:05:47.413Z,18.50
2018-12-24T23:08:16.353Z,19.25
2018-12-24T23:10:45.363Z,17.55
2018-12-24T23:13:14.290Z,16.25
2018-12-24T23:15:43.237Z,18.10
2018-12-24T23:18:12.255Z,20.43
2018-12-24T23:20:41.768Z,19.52
2018-12-24T23:23:10.698Z,21.93
2018-12-24T23:25:39.706Z,20.00
2018-12-24T23:28:08.715Z,17.60
2018-12-24T23:30:37.946Z,24.90
2018-12-24T23:33:06.906Z,20.35
2018-12-24T23:35:35.938Z,19.42
2018-12-24T23:38:04.951Z,21.23
2018-12-24T23:40:33.902Z,24.95
2018-12-24T23:43:02.906Z,21.80
2018-12-24T23:45:31.846Z,19.12
2018-12-24T23:48:00.838Z,19.05
2018-12-24T23:50:30.392Z,23.20
2018-12-24T23:52:59.389Z,21.07
2018-12-24T23:55:28.327Z,18.65
2018-12-24T23:57:57.647Z,18.50
